createdAt,value
2023-05-12T00:00:33.583Z,26.00
2023-05-12T00:03:03.972Z,22.48
2023-05-12T00:05:32.767Z,26.83
2023-05-12T00:08:33.725Z,30.17
2023-05-12T00:11:03.658Z,24.58
2023-05-12T00:13:32.746Z,23.80
2023-05-12T00:16:01.404Z,23.27
2023-05-12T00:19:03.720Z,23.52
2023-05-12T00:21:34.904Z,26.92
2023-05-12T00:24:04.861Z,22.08
2023-05-12T00:26:34.027Z,23.90
2023-05-12T00:29:03.438Z,26.83
2023-05-12T00:31:32.646Z,23.08
2023-05-12T00:34:01.264Z,24.30
2023-05-12T00:36:29.622Z,19.83
2023-05-12T00:38:58.724Z,26.83
2023-05-12T00:41:28.594Z,27.20
2023-05-12T00:44:33.683Z,22.50
2023-05-12T00:47:42.981Z,24.02
2023-05-12T00:50:12.603Z,22.15
2023-05-12T00:52:51.601Z,21.05
2023-05-12T00:55:20.444Z,25.25
2023-05-12T00:57:49.606Z,27.27
2023-05-12T01:00:22.322Z,16.25
2023-05-12T01:02:52.864Z,22.00
2023-05-12T01:05:21.451Z,22.67
2023-05-12T01:07:50.496Z,18.52
2023-05-12T01:10:21.959Z,23.85
2023-05-12T01:12:51.905Z,15.02
2023-05-12T01:15:21.470Z,23.02
2023-05-12T01:17:56.348Z,14.63
2023-05-12T01:20:26.613Z,16.20
2023-05-12T01:22:55.495Z,13.70
2023-05-12T01:25:25.772Z,19.90
2023-05-12T01:27:55.660Z,18.63
2023-05-12T01:30:24.819Z,17.00
2023-05-12T01:32:53.463Z,21.75
2023-05-12T01:35:21.953Z,20.30
2023-05-12T01:38:05.565Z,16.02
2023-05-12T01:40:37.667Z,17.58
2023-05-12T01:43:06.914Z,18.52
2023-05-12T01:45:42.488Z,16.17
2023-05-12T01:48:14.754Z,17.48
2023-05-12T01:50:43.680Z,21.45
2023-05-12T01:53:16.757Z,21.85
2023-05-12T01:55:46.796Z,21.05
2023-05-12T01:58:15.608Z,17.75
2023-05-12T02:00:44.965Z,15.20
2023-05-12T02:03:24.605Z,16.15
2023-05-12T02:05:56.530Z,19.92
2023-05-12T02:08:29.926Z,29.25
2023-05-12T02:11:08.365Z,21.02
2023-05-12T02:13:38.260Z,23.45
2023-05-12T02:16:17.608Z,24.48
2023-05-12T02:18:53.696Z,17.35
2023-05-12T02:21:26.144Z,18.20
2023-05-12T02:24:01.755Z,21.50
2023-05-12T02:26:31.823Z,20.08
2023-05-12T02:29:08.160Z,17.17
2023-05-12T02:31:46.794Z,21.23
2023-05-12T02:34:25.663Z,15.50
2023-05-12T02:37:04.892Z,17.55
2023-05-12T02:39:34.609Z,20.17
2023-05-12T02:42:10.726Z,18.45
2023-05-12T02:44:42.947Z,19.77
2023-05-12T02:47:11.634Z,21.60
2023-05-12T02:49:40.818Z,19.75
2023-05-12T02:52:48.587Z,16.15
2023-05-12T02:55:20.726Z,18.27
2023-05-12T02:57:57.933Z,16.95
2023-05-12T03:00:38.401Z,15.80
2023-05-12T03:03:40.811Z,16.05
2023-05-12T03:06:10.509Z,18.95
2023-05-12T03:08:39.805Z,15.73
2023-05-12T03:11:11.537Z,21.05
2023-05-12T03:13:51.908Z,19.70
2023-05-12T03:16:21.827Z,17.27
2023-05-12T03:19:09.144Z,18.98
2023-05-12T03:21:38.327Z,23.02
2023-05-12T03:24:14.027Z,15.27
2023-05-12T03:26:42.965Z,21.48
2023-05-12T03:29:12.718Z,16.08
2023-05-12T03:31:42.272Z,16.90
2023-05-12T03:34:43.527Z,24.85
2023-05-12T03:37:19.828Z,26.17
2023-05-12T03:40:31.231Z,19.38
2023-05-12T03:44:44.199Z,19.17
2023-05-12T03:47:14.072Z,13.23
2023-05-12T03:49:43.015Z,18.65
2023-05-12T03:52:18.126Z,12.98
2023-05-12T03:54:46.751Z,15.05
2023-05-12T03:57:15.902Z,12.85
2023-05-12T03:59:51.968Z,16.48
2023-05-12T04:02:21.893Z,19.25
2023-05-12T04:04:53.734Z,19.58
2023-05-12T04:07:23.069Z,20.00
2023-05-12T04:09:51.650Z,12.95
2023-05-12T04:12:23.562Z,18.05
2023-05-12T04:14:52.166Z,17.35
2023-05-12T04:17:23.003Z,15.60
2023-05-12T04:19:53.792Z,16.73
2023-05-12T04:22:25.595Z,20.27
2023-05-12T04:24:54.720Z,18.33
2023-05-12T04:27:24.842Z,19.27
2023-05-12T04:30:00.215Z,13.02
2023-05-12T04:32:28.965Z,26.08
2023-05-12T04:34:58.052Z,19.52
2023-05-12T04:37:28.240Z,19.80
2023-05-12T04:39:59.805Z,13.40
2023-05-12T04:42:28.676Z,14.90
2023-05-12T04:45:00.116Z,14.20
2023-05-12T04:47:29.757Z,19.10
2023-05-12T04:50:40.438Z,18.77
2023-05-12T04:54:47.315Z,17.65
2023-05-12T04:57:16.113Z,16.27
2023-05-12T05:00:18.756Z,10.45
2023-05-12T05:04:01.053Z,23.45
2023-05-12T05:06:34.236Z,18.55
2023-05-12T05:09:11.080Z,10.15
2023-05-12T05:12:15.525Z,15.27
2023-05-12T05:20:57.713Z,10.23
2023-05-12T05:23:27.474Z,15.25
2023-05-12T05:25:57.028Z,12.05
2023-05-12T05:28:28.044Z,13.15
2023-05-12T05:30:58.233Z,10.80
2023-05-12T05:33:46.747Z,13.63
2023-05-12T05:36:50.654Z,24.00
2023-05-12T05:39:18.734Z,11.68
2023-05-12T05:41:47.092Z,17.55
2023-05-12T05:44:16.049Z,11.20
2023-05-12T05:46:44.938Z,19.83
2023-05-12T05:49:13.489Z,14.77
2023-05-12T05:51:46.372Z,11.57
2023-05-12T06:03:29.536Z,14.63
2023-05-12T06:06:07.153Z,10.55
2023-05-12T06:09:48.491Z,17.00
2023-05-12T06:17:37.617Z,11.70
2023-05-12T06:20:20.455Z,10.98
2023-05-12T06:28:32.697Z,12.38
2023-05-12T06:31:09.887Z,12.75
2023-05-12T06:33:38.633Z,14.57
2023-05-12T06:36:11.020Z,12.68
2023-05-12T06:40:23.549Z,14.55
2023-05-12T06:49:21.688Z,12.40
2023-05-12T06:52:58.431Z,13.82
2023-05-12T06:56:01.059Z,8.73
2023-05-12T06:58:44.937Z,8.32
2023-05-12T07:01:15.108Z,15.05
2023-05-12T07:03:55.210Z,15.20
2023-05-12T07:07:31.734Z,10.93
2023-05-12T07:10:55.897Z,15.30
2023-05-12T07:14:19.470Z,15.30
2023-05-12T07:17:03.701Z,11.07
2023-05-12T07:19:36.617Z,13.38
2023-05-12T07:22:38.854Z,8.68
2023-05-12T07:25:50.028Z,11.18
2023-05-12T07:28:35.835Z,11.35
2023-05-12T07:31:07.773Z,9.60
2023-05-12T07:33:36.629Z,6.40
2023-05-12T07:37:09.700Z,8.27
2023-05-12T07:39:51.067Z,11.00
2023-05-12T07:43:55.919Z,6.82
2023-05-12T07:46:24.867Z,8.30
2023-05-12T07:48:54.728Z,9.45
2023-05-12T07:51:27.006Z,6.22
2023-05-12T07:54:02.205Z,8.45
2023-05-12T07:56:35.411Z,7.00
2023-05-12T07:59:05.183Z,6.85
2023-05-12T08:01:41.504Z,6.57
2023-05-12T08:04:14.369Z,5.53
2023-05-12T08:07:34.391Z,5.60
2023-05-12T08:13:48.012Z,7.90
2023-05-12T08:16:20.439Z,6.15
2023-05-12T08:19:55.264Z,7.30
2023-05-12T08:23:07.136Z,5.93
2023-05-12T08:30:47.855Z,5.30
2023-05-12T08:33:19.354Z,7.68
2023-05-12T08:35:49.046Z,8.80
2023-05-12T08:38:17.968Z,4.97
2023-05-12T08:41:13.916Z,6.50
2023-05-12T08:44:12.118Z,4.97
2023-05-12T08:46:48.930Z,7.35
2023-05-12T08:49:22.869Z,7.95
2023-05-12T08:51:58.190Z,5.82
2023-05-12T08:54:52.396Z,9.48
2023-05-12T08:58:03.393Z,9.40
2023-05-12T09:01:08.980Z,5.47
2023-05-12T09:04:18.194Z,3.40
2023-05-12T09:07:22.686Z,10.73
2023-05-12T09:09:59.559Z,9.73
2023-05-12T09:15:05.044Z,7.78
2023-05-12T09:17:38.288Z,5.57
2023-05-12T09:20:23.905Z,3.63
2023-05-12T09:23:00.357Z,11.57
2023-05-12T09:25:29.954Z,4.68
2023-05-12T09:27:58.337Z,5.78
2023-05-12T09:30:32.335Z,8.77
2023-05-12T09:33:29.854Z,5.65
2023-05-12T09:36:01.366Z,9.35
2023-05-12T09:38:35.200Z,2.78
2023-05-12T09:41:04.501Z,4.40
2023-05-12T09:43:33.299Z,2.80
2023-05-12T09:46:06.377Z,4.25
2023-05-12T09:48:37.591Z,6.97
2023-05-12T09:51:16.981Z,10.35
2023-05-12T09:54:01.216Z,5.53
2023-05-12T09:56:34.399Z,6.78
2023-05-12T09:59:06.816Z,3.65
2023-05-12T10:01:38.122Z,5.90
2023-05-12T10:04:08.014Z,5.53
2023-05-12T10:10:26.887Z,3.60
2023-05-12T10:12:57.145Z,3.88
2023-05-12T10:15:26.155Z,2.60
2023-05-12T10:18:00.298Z,5.85
2023-05-12T10:20:28.979Z,4.68
2023-05-12T10:22:57.264Z,2.08
2023-05-12T10:25:39.653Z,6.57
2023-05-12T10:28:10.130Z,6.13
2023-05-12T10:30:40.702Z,3.15
2023-05-12T10:33:12.621Z,5.25
2023-05-12T10:35:43.229Z,3.05
2023-05-12T10:38:24.020Z,3.67
2023-05-12T10:41:35.432Z,5.22
2023-05-12T10:44:16.137Z,5.75
2023-05-12T10:53:52.750Z,3.47
2023-05-12T10:57:31.983Z,6.63
2023-05-12T11:00:10.749Z,3.70
2023-05-12T11:03:38.304Z,3.80
2023-05-12T11:06:22.713Z,5.63
2023-05-12T11:08:55.413Z,3.17
2023-05-12T11:11:25.864Z,7.88
2023-05-12T11:18:38.196Z,5.30
2023-05-12T11:30:08.370Z,7.57
2023-05-12T11:33:11.926Z,2.35
2023-05-12T11:35:46.385Z,4.55
2023-05-12T11:38:29.304Z,5.82
2023-05-12T11:41:09.006Z,3.05
2023-05-12T11:48:12.608Z,4.32
2023-05-12T11:50:57.886Z,5.95
2023-05-12T11:54:09.483Z,3.65
2023-05-12T11:58:41.227Z,8.73
2023-05-12T12:13:13.653Z,7.25
2023-05-12T12:23:37.818Z,3.97
2023-05-12T12:26:53.124Z,5.20
2023-05-12T12:29:24.010Z,7.43
2023-05-12T12:32:16.534Z,5.43
2023-05-12T12:35:18.271Z,5.53
2023-05-12T12:38:06.611Z,4.18
2023-05-12T12:41:07.012Z,4.20
2023-05-12T12:44:07.279Z,3.65
2023-05-12T12:46:39.713Z,4.18
2023-05-12T12:52:40.956Z,2.95
2023-05-12T12:55:34.578Z,3.28
2023-05-12T12:58:06.643Z,2.67
2023-05-12T13:02:14.474Z,5.43
2023-05-12T13:04:47.366Z,4.28
2023-05-12T13:07:23.236Z,9.02
2023-05-12T13:10:34.506Z,3.53
2023-05-12T13:14:15.716Z,3.53
2023-05-12T13:17:28.578Z,3.55
2023-05-12T13:19:59.816Z,4.15
2023-05-12T13:22:29.170Z,5.30
2023-05-12T13:25:36.998Z,6.13
2023-05-12T13:32:24.053Z,5.55
2023-05-12T13:34:57.368Z,5.22
2023-05-12T13:37:27.566Z,6.13
2023-05-12T13:39:58.595Z,4.43
2023-05-12T13:42:29.887Z,6.10
2023-05-12T13:44:58.121Z,3.58
2023-05-12T13:50:10.848Z,4.82
2023-05-12T13:53:07.736Z,3.70
2023-05-12T13:55:40.650Z,5.80
2023-05-12T13:58:10.767Z,4.80
2023-05-12T14:00:44.337Z,3.45
2023-05-12T14:03:35.258Z,2.65
2023-05-12T14:06:04.679Z,9.98
2023-05-12T14:11:58.362Z,4.28
2023-05-12T14:18:43.856Z,6.50
2023-05-12T14:21:22.325Z,4.10
2023-05-12T14:23:57.821Z,3.38
2023-05-12T14:27:20.020Z,3.57
2023-05-12T14:30:59.644Z,5.05
2023-05-12T14:33:37.732Z,3.17
2023-05-12T14:36:08.941Z,4.25
2023-05-12T14:38:42.806Z,7.13
2023-05-12T14:41:12.627Z,4.78
2023-05-12T14:43:42.184Z,3.85
2023-05-12T14:46:12.788Z,5.80
2023-05-12T14:48:41.810Z,5.45
2023-05-12T14:51:11.198Z,4.55
2023-05-12T14:53:41.767Z,4.35
2023-05-12T14:56:12.286Z,4.22
2023-05-12T14:58:40.658Z,3.40
2023-05-12T15:01:09.713Z,3.78
2023-05-12T15:03:38.930Z,4.78
2023-05-12T15:06:08.830Z,4.88
2023-05-12T15:08:37.606Z,3.50
2023-05-12T15:11:09.468Z,5.75
2023-05-12T15:13:38.475Z,2.72
2023-05-12T15:16:08.431Z,8.68
2023-05-12T15:18:38.450Z,4.75
2023-05-12T15:21:06.787Z,5.68
2023-05-12T15:23:39.887Z,5.18
2023-05-12T15:26:26.942Z,8.05
2023-05-12T15:29:06.185Z,5.75
2023-05-12T15:31:35.435Z,8.55
2023-05-12T15:34:07.874Z,10.90
2023-05-12T15:36:40.450Z,7.78
2023-05-12T15:39:09.446Z,8.95
2023-05-12T15:41:38.885Z,10.65
2023-05-12T15:44:30.939Z,11.23
2023-05-12T15:47:03.231Z,9.25
2023-05-12T15:49:32.935Z,10.02
2023-05-12T15:52:04.160Z,6.82
2023-05-12T15:54:37.957Z,7.80
2023-05-12T15:57:06.929Z,10.48
2023-05-12T15:59:35.644Z,8.50
2023-05-12T16:02:04.542Z,5.93
2023-05-12T16:04:34.327Z,12.60
2023-05-12T16:07:12.613Z,10.27
2023-05-12T16:09:48.716Z,12.13
2023-05-12T16:14:48.246Z,10.13
2023-05-12T16:17:16.551Z,13.13
2023-05-12T16:19:45.648Z,10.68
2023-05-12T16:22:18.736Z,12.05
2023-05-12T16:24:48.225Z,13.57
2023-05-12T16:28:00.717Z,12.02
2023-05-12T16:31:28.990Z,12.75
2023-05-12T16:38:03.378Z,12.15
2023-05-12T17:11:39.615Z,15.30
2023-05-12T17:17:45.633Z,14.40
2023-05-12T17:20:16.026Z,20.17
2023-05-12T17:22:47.406Z,16.50
2023-05-12T17:25:20.735Z,17.98
2023-05-12T17:28:19.376Z,23.00
2023-05-12T17:30:52.191Z,16.83
2023-05-12T17:33:24.723Z,19.85
2023-05-12T17:36:12.800Z,12.15
2023-05-12T17:38:53.111Z,20.90
2023-05-12T17:42:38.931Z,17.77
2023-05-12T17:45:11.748Z,22.88
2023-05-12T17:48:15.234Z,29.45
2023-05-12T17:51:00.935Z,37.03
2023-05-12T17:53:34.144Z,23.77
2023-05-12T17:56:04.658Z,23.65
2023-05-12T17:58:34.486Z,23.25
2023-05-12T18:01:11.839Z,20.10
2023-05-12T18:03:49.851Z,27.85
2023-05-12T18:06:54.250Z,28.15
2023-05-12T18:09:32.912Z,32.00
2023-05-12T18:12:08.927Z,33.50
2023-05-12T18:14:48.620Z,44.28
2023-05-12T18:54:29.099Z,41.28
2023-05-12T18:56:58.774Z,48.30
2023-05-12T19:09:27.859Z,35.72
2023-05-12T19:12:54.439Z,35.90
2023-05-12T19:15:29.877Z,35.50
2023-05-12T19:18:17.686Z,36.65
2023-05-12T19:22:31.263Z,34.15
2023-05-12T19:25:06.342Z,36.08
2023-05-12T19:27:37.634Z,42.72
2023-05-12T19:30:09.293Z,28.92
2023-05-12T19:32:38.084Z,42.20
2023-05-12T19:35:40.818Z,39.60
2023-05-12T19:38:16.113Z,48.65
2023-05-12T19:40:46.002Z,45.87
2023-05-12T19:43:16.111Z,56.72
2023-05-12T19:45:44.201Z,46.33
2023-05-12T19:48:32.795Z,40.92
2023-05-12T19:51:18.117Z,44.80
2023-05-12T19:56:34.868Z,41.10
2023-05-12T19:59:12.872Z,58.60
2023-05-12T20:01:49.585Z,40.03
2023-05-12T20:05:27.042Z,46.47
2023-05-12T20:07:59.974Z,51.35
2023-05-12T20:10:30.896Z,48.10
2023-05-12T20:13:33.427Z,54.55
2023-05-12T20:16:38.883Z,44.95
2023-05-12T20:19:07.379Z,47.15
2023-05-12T20:24:37.234Z,50.83
2023-05-12T20:27:46.992Z,41.08
2023-05-12T20:30:17.687Z,41.65
2023-05-12T20:32:54.917Z,44.58
2023-05-12T20:35:28.827Z,52.03
2023-05-12T20:38:03.061Z,48.80
2023-05-12T20:40:31.838Z,38.67
2023-05-12T20:43:04.193Z,43.90
2023-05-12T20:45:36.906Z,44.95
2023-05-12T20:48:06.583Z,44.92
2023-05-12T20:50:36.426Z,54.28
2023-05-12T20:53:06.159Z,49.47
2023-05-12T20:55:34.383Z,45.15
2023-05-12T20:58:03.231Z,42.58
2023-05-12T21:00:31.959Z,44.30
2023-05-12T21:03:17.319Z,36.63
2023-05-12T21:07:06.678Z,43.60
2023-05-12T21:09:35.058Z,35.38
2023-05-12T21:12:03.424Z,40.25
2023-05-12T21:14:40.673Z,45.05
2023-05-12T21:19:44.155Z,38.65
2023-05-12T21:22:14.202Z,46.28
2023-05-12T21:24:43.145Z,36.55
2023-05-12T21:27:12.070Z,36.88
2023-05-12T21:29:40.571Z,37.90
2023-05-12T21:32:09.240Z,39.20
2023-05-12T21:34:39.188Z,41.15
2023-05-12T21:37:40.046Z,30.63
2023-05-12T21:40:10.066Z,45.15
2023-05-12T21:42:47.544Z,38.38
2023-05-12T21:45:16.591Z,39.75
2023-05-12T21:47:50.010Z,38.00
2023-05-12T21:50:21.996Z,36.20
2023-05-12T21:52:50.400Z,36.45
2023-05-12T21:55:18.575Z,38.90
2023-05-12T21:57:47.222Z,34.53
2023-05-12T22:00:19.126Z,40.63
2023-05-12T22:02:48.259Z,31.88
2023-05-12T22:05:17.081Z,40.88
2023-05-12T22:07:48.419Z,36.03
2023-05-12T22:10:17.533Z,39.28
2023-05-12T22:12:48.853Z,36.67
2023-05-12T22:15:19.070Z,37.50
2023-05-12T22:17:48.886Z,35.90
2023-05-12T22:20:20.397Z,35.53
2023-05-12T22:22:49.775Z,35.80
2023-05-12T22:25:18.865Z,37.42
2023-05-12T22:27:55.029Z,35.60
2023-05-12T22:30:28.128Z,34.60
2023-05-12T22:33:00.733Z,36.95
2023-05-12T22:35:30.084Z,32.05
2023-05-12T22:37:59.000Z,39.35
2023-05-12T22:40:27.959Z,31.77
2023-05-12T22:42:55.995Z,35.78
2023-05-12T22:45:25.966Z,34.55
2023-05-12T22:47:55.346Z,31.92
2023-05-12T22:50:24.471Z,39.67
2023-05-12T22:52:57.516Z,35.67
2023-05-12T22:55:27.996Z,41.20
2023-05-12T22:57:57.164Z,32.47
2023-05-12T23:00:27.089Z,39.05
2023-05-12T23:03:04.251Z,37.72
2023-05-12T23:05:33.368Z,40.80
2023-05-12T23:08:03.065Z,34.22
2023-05-12T23:10:32.579Z,45.05
2023-05-12T23:13:05.427Z,33.50
2023-05-12T23:15:41.266Z,33.95
2023-05-12T23:18:09.384Z,38.03
2023-05-12T23:20:39.136Z,30.30
2023-05-12T23:23:07.503Z,31.63
2023-05-12T23:25:38.814Z,33.72
2023-05-12T23:28:07.277Z,30.80
2023-05-12T23:30:35.878Z,35.42
2023-05-12T23:33:04.261Z,33.45
2023-05-12T23:35:50.778Z,25.00
2023-05-12T23:38:20.354Z,31.15
2023-05-12T23:40:49.073Z,31.27
2023-05-12T23:43:17.421Z,36.35
2023-05-12T23:45:45.956Z,31.67
2023-05-12T23:48:14.420Z,30.95
2023-05-12T23:50:43.640Z,30.60
2023-05-12T23:53:11.961Z,32.85
2023-05-12T23:55:41.470Z,30.38
2023-05-12T23:58:11.636Z,38.15
